Time;durP1;ratioP1;P1;durP2;ratioP2;P2;SDS_P1;SDS_P2;PMS_P1;PMS_P2;Temp;Humidity;BMP_temperature;BMP_pressure;BME280_temperature;BME280_humidity;BME280_pressure;Samples;Min_cycle;Max_cycle;Signal;HPM_P1;HPM_P2
2021/01/20 00:00:47;;;;;;;33.63;14.10;;;0.70;99.90;;;;;;4373029;28;658283;-60
2021/01/20 00:03:34;;;;;;;17.20;6.73;;;0.70;99.90;;;;;;4332102;28;658580;-61
2021/01/20 00:06:22;;;;;;;32.90;14.57;;;0.50;99.90;;;;;;4349338;28;659371;-60
2021/01/20 00:09:09;;;;;;;43.00;15.17;;;0.50;99.90;;;;;;4337237;28;659514;-61
2021/01/20 00:11:56;;;;;;;34.97;14.83;;;0.60;99.90;;;;;;4345368;28;659792;-61
2021/01/20 00:14:43;;;;;;;33.40;13.53;;;0.60;99.90;;;;;;4394686;28;658319;-60
2021/01/20 00:17:30;;;;;;;12.10;5.15;;;0.60;99.90;;;;;;4377988;28;658850;-59
2021/01/20 00:20:17;;;;;;;32.73;14.47;;;0.70;99.90;;;;;;4386251;28;659261;-59
2021/01/20 00:23:04;;;;;;;35.95;14.73;;;0.80;99.90;;;;;;4362000;28;658475;-61
2021/01/20 00:25:51;;;;;;;15.10;7.90;;;0.70;99.90;;;;;;4387585;28;659577;-60
2021/01/20 00:28:39;;;;;;;22.45;10.80;;;0.70;99.90;;;;;;4343536;28;658017;-61
2021/01/20 00:31:26;;;;;;;9.53;5.00;;;0.70;99.90;;;;;;4358951;28;659900;-60
2021/01/20 00:34:13;;;;;;;23.08;10.30;;;0.70;99.90;;;;;;4378953;28;657869;-59
2021/01/20 00:37:00;;;;;;;29.03;11.57;;;0.70;99.90;;;;;;4353406;28;659339;-61
2021/01/20 00:39:47;;;;;;;24.63;10.03;;;0.80;99.90;;;;;;4362593;28;659381;-61
2021/01/20 00:42:34;;;;;;;15.70;8.10;;;0.70;99.90;;;;;;4356957;28;659080;-60
2021/01/20 00:45:21;;;;;;;7.97;4.47;;;0.80;99.90;;;;;;4375716;28;657003;-59
2021/01/20 00:48:10;;;;;;;27.70;13.07;;;0.80;99.90;;;;;;4356701;28;656860;-61
2021/01/20 00:50:57;;;;;;;15.87;7.13;;;0.80;99.90;;;;;;4364442;28;659793;-60
2021/01/20 00:53:44;;;;;;;20.23;10.07;;;0.80;99.90;;;;;;4359988;28;657603;-60
2021/01/20 00:56:32;;;;;;;26.83;12.53;;;0.80;99.90;;;;;;4372851;28;660457;-60
2021/01/20 00:59:19;;;;;;;27.10;13.57;;;0.80;99.90;;;;;;4333084;28;659575;-61
2021/01/20 01:02:06;;;;;;;27.57;13.00;;;0.70;99.90;;;;;;4352240;28;660293;-59
2021/01/20 01:04:53;;;;;;;10.63;4.17;;;0.80;99.90;;;;;;4371612;28;658237;-61
2021/01/20 01:07:40;;;;;;;23.17;10.73;;;0.80;99.90;;;;;;4334553;28;657773;-59
2021/01/20 01:10:27;;;;;;;16.53;7.83;;;0.90;99.90;;;;;;4365694;28;659026;-61
2021/01/20 01:13:15;;;;;;;22.87;9.80;;;0.90;99.90;;;;;;4342880;28;657715;-62
2021/01/20 01:16:02;;;;;;;21.57;10.73;;;0.90;99.90;;;;;;4375702;28;658913;-60
2021/01/20 01:18:49;;;;;;;12.00;6.17;;;0.80;99.90;;;;;;4351325;28;658654;-59
2021/01/20 01:21:36;;;;;;;19.83;8.73;;;0.80;99.90;;;;;;4359882;28;658405;-60
2021/01/20 01:24:24;;;;;;;27.55;11.32;;;0.90;99.90;;;;;;4345969;28;657865;-62
2021/01/20 01:27:11;;;;;;;13.60;7.60;;;0.90;99.90;;;;;;4364072;28;658339;-61
2021/01/20 01:29:59;;;;;;;23.30;11.27;;;0.90;99.90;;;;;;4366103;28;657226;-62
2021/01/20 01:32:45;;;;;;;24.17;11.50;;;1.00;99.90;;;;;;4333943;28;659189;-61
2021/01/20 01:35:32;;;;;;;7.97;3.00;;;0.90;99.90;;;;;;4352959;28;660152;-61
2021/01/20 01:38:20;;;;;;;15.20;7.40;;;0.90;99.90;;;;;;4334792;28;656981;-62
2021/01/20 01:41:07;;;;;;;16.03;7.03;;;1.00;99.90;;;;;;4358484;28;658502;-61
2021/01/20 01:43:54;;;;;;;17.38;9.25;;;1.00;99.90;;;;;;4339204;28;657543;-60
2021/01/20 01:46:42;;;;;;;26.23;12.43;;;1.00;99.90;;;;;;4365292;28;659564;-60
2021/01/20 01:49:30;;;;;;;22.37;11.13;;;1.00;99.90;;;;;;4335796;28;658483;-61
2021/01/20 01:52:17;;;;;;;15.17;6.47;;;1.00;99.90;;;;;;4352157;28;660090;-60
2021/01/20 01:55:05;;;;;;;20.40;11.03;;;1.10;99.90;;;;;;4335509;28;657931;-62
2021/01/20 01:57:52;;;;;;;9.15;4.32;;;1.00;99.90;;;;;;4350625;28;659382;-60
2021/01/20 02:00:39;;;;;;;19.97;9.80;;;1.10;99.90;;;;;;4340834;28;656726;-60
2021/01/20 02:03:27;;;;;;;21.30;10.00;;;1.10;99.90;;;;;;4373656;28;659460;-61
2021/01/20 02:06:14;;;;;;;21.33;11.37;;;1.00;99.90;;;;;;4363776;28;658661;-61
2021/01/20 02:09:01;;;;;;;22.83;11.57;;;1.00;99.90;;;;;;4364803;28;660765;-61
2021/01/20 02:12:17;;;;;;;16.97;9.23;;;1.00;99.90;;;;;;4364141;28;658895;-61
2021/01/20 02:15:07;;;;;;;20.60;10.03;;;0.90;99.90;;;;;;4311998;28;659234;-61
2021/01/20 02:17:57;;;;;;;17.27;10.00;;;1.00;99.90;;;;;;4337940;28;658468;-61
2021/01/20 02:21:16;;;;;;;21.77;11.17;;;1.00;99.90;;;;;;4329545;28;658553;-61
2021/01/20 02:24:04;;;;;;;21.47;11.57;;;1.00;99.90;;;;;;4332481;28;659347;-60
2021/01/20 02:26:57;;;;;;;5.80;3.67;;;1.00;99.90;;;;;;4340639;28;659386;-61
2021/01/20 02:29:54;;;;;;;24.40;11.27;;;1.10;99.90;;;;;;4333585;28;656656;-62
2021/01/20 02:32:41;;;;;;;20.37;8.97;;;1.00;99.90;;;;;;4348872;28;658989;-59
2021/01/20 02:35:29;;;;;;;7.50;4.13;;;1.00;99.90;;;;;;4370009;28;657480;-62
2021/01/20 02:38:15;;;;;;;20.97;10.40;;;1.10;99.90;;;;;;4359460;28;656489;-61
2021/01/20 02:41:02;;;;;;;17.27;9.00;;;1.10;99.90;;;;;;4374207;28;659172;-60
2021/01/20 02:43:49;;;;;;;22.33;10.17;;;1.10;99.90;;;;;;4353239;28;658239;-60
2021/01/20 02:46:37;;;;;;;16.63;8.57;;;1.10;99.90;;;;;;4369949;28;659010;-60
2021/01/20 02:49:24;;;;;;;14.60;7.67;;;1.00;99.90;;;;;;4352254;28;657613;-61
2021/01/20 02:52:13;;;;;;;8.20;3.20;;;1.20;99.90;;;;;;4376202;28;658827;-62
2021/01/20 02:55:04;;;;;;;18.43;10.70;;;1.20;99.90;;;;;;4353785;28;657188;-60
2021/01/20 02:57:55;;;;;;;23.23;11.80;;;1.10;99.90;;;;;;4340803;28;659436;-61
2021/01/20 03:00:42;;;;;;;20.23;9.20;;;1.10;99.90;;;;;;4345006;28;658729;-61
2021/01/20 03:03:31;;;;;;;8.27;2.87;;;1.10;99.90;;;;;;4346073;28;658267;-62
2021/01/20 03:06:18;;;;;;;20.13;10.53;;;1.20;99.90;;;;;;4372749;28;656769;-61
2021/01/20 03:09:05;;;;;;;13.37;6.80;;;1.10;99.90;;;;;;4345820;28;658490;-61
2021/01/20 03:11:52;;;;;;;20.37;8.67;;;1.10;99.90;;;;;;4370927;28;658614;-62
2021/01/20 03:14:39;;;;;;;20.60;10.63;;;1.20;99.90;;;;;;4354642;28;657690;-62
2021/01/20 03:17:26;;;;;;;17.67;7.10;;;1.10;99.90;;;;;;4378961;28;660215;-60
2021/01/20 03:20:15;;;;;;;10.82;6.35;;;1.20;99.90;;;;;;4357952;28;657545;-62
2021/01/20 03:23:02;;;;;;;14.47;5.17;;;1.20;99.90;;;;;;4372110;28;658201;-61
2021/01/20 03:25:49;;;;;;;21.00;10.70;;;1.30;99.90;;;;;;4345183;28;657347;-62
2021/01/20 03:28:36;;;;;;;5.80;3.50;;;1.20;99.90;;;;;;4369051;28;659950;-61
2021/01/20 03:31:24;;;;;;;16.93;9.17;;;1.30;99.90;;;;;;4372571;28;656603;-62
2021/01/20 03:34:10;;;;;;;11.40;5.53;;;1.30;99.90;;;;;;4365455;28;658226;-62
2021/01/20 03:36:58;;;;;;;20.73;10.73;;;1.30;99.90;;;;;;4372528;28;657871;-61
2021/01/20 03:39:45;;;;;;;13.00;7.20;;;1.20;99.90;;;;;;4346506;28;660596;-61
2021/01/20 03:42:32;;;;;;;17.73;7.27;;;1.20;99.90;;;;;;4375414;28;657978;-61
2021/01/20 03:45:19;;;;;;;20.17;8.77;;;1.40;99.90;;;;;;4352407;28;658717;-62
2021/01/20 03:48:07;;;;;;;10.70;5.80;;;1.30;99.90;;;;;;4365693;28;657829;-61
2021/01/20 03:50:54;;;;;;;8.63;4.97;;;1.40;99.90;;;;;;4349192;28;657852;-63
2021/01/20 03:53:42;;;;;;;8.73;4.73;;;1.50;99.90;;;;;;4371331;28;657348;-61
2021/01/20 03:56:29;;;;;;;16.53;9.50;;;1.50;99.90;;;;;;4354743;28;656600;-62
2021/01/20 03:59:16;;;;;;;9.83;5.47;;;1.30;99.90;;;;;;4364599;28;659453;-62
2021/01/20 04:02:05;;;;;;;18.43;9.50;;;1.50;99.90;;;;;;4369185;28;656408;-61
2021/01/20 04:04:52;;;;;;;18.23;8.97;;;1.40;99.90;;;;;;4345283;28;658219;-61
2021/01/20 04:07:39;;;;;;;18.53;10.30;;;1.30;99.90;;;;;;4344590;28;658530;-61
2021/01/20 04:10:27;;;;;;;20.23;10.40;;;1.50;99.90;;;;;;4365902;28;658961;-62
2021/01/20 04:13:14;;;;;;;13.13;6.27;;;1.50;99.90;;;;;;4335945;28;658539;-61
2021/01/20 04:16:02;;;;;;;5.67;3.20;;;1.60;99.90;;;;;;4358715;28;659595;-61
2021/01/20 04:18:49;;;;;;;15.57;8.80;;;1.60;99.90;;;;;;4354235;28;657318;-63
2021/01/20 04:21:36;;;;;;;14.80;8.50;;;1.70;99.90;;;;;;4375412;28;657301;-61
2021/01/20 04:24:23;;;;;;;8.75;4.53;;;1.70;99.90;;;;;;4358657;28;657755;-62
2021/01/20 04:27:11;;;;;;;20.30;8.83;;;1.70;99.90;;;;;;4334358;28;656790;-62
2021/01/20 04:29:58;;;;;;;23.43;8.27;;;1.80;99.90;;;;;;4361678;28;657476;-60
2021/01/20 04:32:44;;;;;;;10.97;2.47;;;1.80;99.90;;;;;;4337428;28;657643;-61
2021/01/20 04:35:32;;;;;;;15.77;8.50;;;1.70;99.90;;;;;;4361095;28;658183;-61
2021/01/20 04:38:19;;;;;;;14.50;8.03;;;1.80;99.90;;;;;;4352271;28;657828;-63
2021/01/20 04:41:05;;;;;;;20.37;8.47;;;1.80;99.90;;;;;;4370839;28;657140;-61
2021/01/20 04:43:54;;;;;;;18.33;8.77;;;1.70;99.90;;;;;;4365063;28;658245;-61
2021/01/20 04:46:41;;;;;;;21.90;10.07;;;1.80;99.90;;;;;;4346878;28;658279;-62
2021/01/20 04:49:28;;;;;;;22.00;10.13;;;1.80;99.90;;;;;;4354505;28;659478;-62
2021/01/20 04:52:17;;;;;;;11.63;6.17;;;1.80;99.90;;;;;;4354741;28;658729;-61
2021/01/20 04:55:05;;;;;;;11.30;5.73;;;1.80;99.90;;;;;;4355231;28;657427;-62
2021/01/20 04:57:52;;;;;;;7.00;3.37;;;1.80;99.90;;;;;;4366859;28;658374;-61
2021/01/20 05:00:40;;;;;;;19.80;9.40;;;1.90;99.90;;;;;;4333870;28;656688;-63
2021/01/20 05:03:27;;;;;;;13.90;6.97;;;2.00;99.90;;;;;;4358900;28;658573;-62
2021/01/20 05:06:14;;;;;;;10.40;5.63;;;1.90;99.90;;;;;;4346229;28;657694;-61
2021/01/20 05:09:01;;;;;;;13.03;6.40;;;1.90;99.90;;;;;;4362180;28;659047;-61
2021/01/20 05:11:49;;;;;;;6.15;3.40;;;1.90;99.90;;;;;;4366982;28;658774;-62
2021/01/20 05:14:41;;;;;;;19.87;10.53;;;2.00;99.90;;;;;;4374640;28;656921;-61
2021/01/20 05:17:30;;;;;;;20.43;10.70;;;2.00;99.90;;;;;;4336566;28;658696;-63
2021/01/20 05:20:26;;;;;;;18.87;11.17;;;2.10;99.90;;;;;;4372550;28;659809;-61
2021/01/20 05:23:14;;;;;;;24.53;12.90;;;2.10;99.90;;;;;;4349991;28;659165;-62
2021/01/20 05:26:01;;;;;;;13.17;6.10;;;2.10;99.90;;;;;;4359592;28;660082;-61
2021/01/20 05:28:51;;;;;;;27.90;12.10;;;2.00;99.90;;;;;;4381091;28;659022;-61
2021/01/20 05:31:38;;;;;;;25.75;11.80;;;2.10;99.90;;;;;;4333063;28;659011;-61
2021/01/20 05:34:27;;;;;;;7.93;3.83;;;2.10;99.90;;;;;;4345984;28;658625;-62
2021/01/20 05:37:15;;;;;;;17.77;8.37;;;2.20;99.90;;;;;;4360716;28;656651;-62
2021/01/20 05:40:09;;;;;;;25.00;12.63;;;2.20;99.90;;;;;;4373168;28;658768;-62
2021/01/20 05:42:56;;;;;;;26.77;13.43;;;2.10;99.90;;;;;;4321897;28;660123;-61
2021/01/20 05:45:46;;;;;;;6.93;4.17;;;2.00;99.90;;;;;;4359361;28;658566;-63
2021/01/20 05:48:37;;;;;;;26.95;12.13;;;2.20;99.90;;;;;;4355841;28;656583;-62
2021/01/20 05:51:26;;;;;;;28.43;14.50;;;2.20;99.90;;;;;;4353862;28;658547;-61
2021/01/20 05:54:12;;;;;;;8.90;4.17;;;2.10;99.90;;;;;;4374696;28;658966;-61
2021/01/20 05:57:16;;;;;;;28.30;13.90;;;2.10;99.90;;;;;;4354139;28;656522;-61
2021/01/20 06:00:14;;;;;;;22.33;10.43;;;2.20;99.90;;;;;;4334121;28;659158;-62
2021/01/20 06:03:00;;;;;;;31.80;14.37;;;2.10;99.90;;;;;;4321459;28;658983;-62
2021/01/20 06:05:47;;;;;;;29.17;12.90;;;2.20;99.90;;;;;;4371861;28;658924;-62
2021/01/20 06:08:35;;;;;;;25.27;12.07;;;2.30;99.90;;;;;;4350329;28;658665;-62
2021/01/20 06:11:22;;;;;;;11.57;5.83;;;2.20;99.90;;;;;;4372124;28;659585;-62
2021/01/20 06:14:09;;;;;;;19.60;10.43;;;2.30;99.90;;;;;;4347968;28;657575;-61
2021/01/20 06:17:03;;;;;;;13.93;5.43;;;2.20;99.90;;;;;;4374345;28;660590;-62
2021/01/20 06:19:51;;;;;;;10.73;5.73;;;2.20;99.90;;;;;;4322819;28;658584;-62
2021/01/20 06:22:45;;;;;;;26.13;12.52;;;2.40;99.90;;;;;;4362039;28;657800;-61
2021/01/20 06:25:35;;;;;;;22.70;12.23;;;2.30;99.90;;;;;;4352759;28;658691;-62
2021/01/20 06:28:22;;;;;;;21.57;11.67;;;2.40;99.90;;;;;;4341282;28;658730;-63
2021/01/20 06:31:12;;;;;;;25.63;12.80;;;2.30;99.90;;;;;;4336781;28;658555;-62
2021/01/20 06:34:04;;;;;;;29.73;12.93;;;2.40;99.90;;;;;;4352778;28;658727;-63
2021/01/20 06:36:51;;;;;;;20.20;10.93;;;2.30;99.90;;;;;;4348757;28;659563;-62
2021/01/20 06:39:39;;;;;;;25.83;12.87;;;2.30;99.90;;;;;;4373905;28;658862;-63
2021/01/20 06:42:31;;;;;;;14.98;6.75;;;2.40;99.90;;;;;;4371050;28;659946;-62
2021/01/20 06:45:21;;;;;;;15.30;6.27;;;2.50;99.90;;;;;;4325798;28;658366;-63
2021/01/20 06:48:10;;;;;;;21.37;9.17;;;2.50;99.90;;;;;;4377585;28;657869;-61
2021/01/20 06:51:12;;;;;;;24.67;12.27;;;2.50;99.90;;;;;;4351112;28;657706;-61
2021/01/20 06:54:11;;;;;;;17.50;7.23;;;2.60;99.90;;;;;;4330221;28;659514;-62
2021/01/20 06:56:59;;;;;;;12.15;4.55;;;2.60;99.90;;;;;;4350584;28;657574;-63
2021/01/20 06:59:47;;;;;;;24.80;12.67;;;2.70;99.90;;;;;;4375708;28;658129;-62
2021/01/20 07:02:34;;;;;;;26.30;12.90;;;2.70;99.90;;;;;;4353408;28;658923;-62
2021/01/20 07:05:31;;;;;;;13.00;6.17;;;2.60;99.90;;;;;;4366880;28;658588;-61
2021/01/20 07:08:19;;;;;;;19.93;10.03;;;2.80;99.90;;;;;;4343185;28;659171;-63
2021/01/20 07:11:06;;;;;;;12.87;6.43;;;2.80;99.90;;;;;;4377715;28;658394;-62
2021/01/20 07:13:53;;;;;;;23.70;10.98;;;2.70;99.90;;;;;;4373132;28;657785;-62
2021/01/20 07:16:41;;;;;;;19.87;7.80;;;3.00;99.90;;;;;;4350035;28;658650;-61
2021/01/20 07:19:28;;;;;;;18.75;9.98;;;2.90;99.90;;;;;;4370473;28;658539;-62
2021/01/20 07:22:15;;;;;;;7.40;3.93;;;3.00;99.90;;;;;;4342792;28;657615;-62
2021/01/20 07:25:02;;;;;;;16.20;8.87;;;3.10;99.90;;;;;;4372974;28;656983;-62
2021/01/20 07:27:49;;;;;;;16.47;9.37;;;3.00;99.90;;;;;;4360690;28;657546;-63
2021/01/20 07:30:37;;;;;;;8.77;5.33;;;2.80;99.90;;;;;;4375441;28;659073;-62
2021/01/20 07:33:25;;;;;;;14.40;7.95;;;3.00;99.90;;;;;;4348999;28;656380;-63
2021/01/20 07:36:15;;;;;;;18.27;7.80;;;3.10;99.90;;;;;;4373077;28;659012;-62
2021/01/20 07:39:02;;;;;;;16.80;8.90;;;3.10;99.90;;;;;;4355238;28;659303;-62
2021/01/20 07:41:53;;;;;;;16.30;7.93;;;3.00;99.90;;;;;;4353229;28;657642;-62
2021/01/20 07:44:46;;;;;;;17.40;8.70;;;3.10;99.90;;;;;;4350661;28;658003;-61
2021/01/20 07:47:45;;;;;;;11.17;6.47;;;3.20;99.90;;;;;;4367401;28;657638;-63
2021/01/20 07:50:44;;;;;;;14.50;6.68;;;3.20;99.90;;;;;;4355192;28;658316;-62
2021/01/20 07:53:31;;;;;;;18.30;6.72;;;3.20;99.90;;;;;;4319612;28;659057;-62
2021/01/20 07:56:21;;;;;;;18.70;7.97;;;3.40;99.90;;;;;;4377533;28;658009;-62
2021/01/20 07:59:15;;;;;;;20.33;10.07;;;3.40;99.90;;;;;;4342376;28;658040;-62
2021/01/20 08:02:08;;;;;;;20.20;9.73;;;3.40;99.90;;;;;;4345490;28;659399;-62
2021/01/20 08:04:59;;;;;;;17.30;9.30;;;3.40;99.90;;;;;;4329371;28;658763;-62
2021/01/20 08:07:47;;;;;;;10.80;5.43;;;3.40;99.90;;;;;;4352311;28;658875;-62
2021/01/20 08:10:34;;;;;;;20.52;10.30;;;3.50;99.90;;;;;;4341314;28;657841;-63
2021/01/20 08:13:21;;;;;;;13.30;7.07;;;3.40;99.90;;;;;;4366980;28;659024;-61
2021/01/20 08:16:08;;;;;;;18.77;8.53;;;3.50;99.90;;;;;;4371946;28;657651;-62
2021/01/20 08:18:55;;;;;;;23.43;9.83;;;3.70;99.90;;;;;;4352848;28;657570;-62
2021/01/20 08:21:44;;;;;;;15.47;6.17;;;3.70;99.90;;;;;;4378136;28;658070;-62
2021/01/20 08:24:32;;;;;;;17.13;7.87;;;3.80;99.90;;;;;;4350052;28;658432;-62
2021/01/20 08:27:25;;;;;;;7.70;4.22;;;3.80;99.90;;;;;;4359025;28;658399;-63
2021/01/20 08:30:13;;;;;;;24.53;10.50;;;4.00;99.90;;;;;;4356807;28;657875;-62
2021/01/20 08:33:00;;;;;;;13.10;4.77;;;4.00;99.90;;;;;;4372248;28;658625;-63
2021/01/20 08:35:47;;;;;;;20.80;9.53;;;4.00;99.90;;;;;;4376306;28;657427;-62
2021/01/20 08:38:34;;;;;;;19.60;7.33;;;4.10;99.90;;;;;;4360615;28;657673;-62
2021/01/20 08:41:22;;;;;;;10.37;5.53;;;4.40;99.90;;;;;;4376007;28;658282;-62
2021/01/20 08:44:15;;;;;;;22.77;11.20;;;4.40;99.90;;;;;;4360270;28;657905;-62
2021/01/20 08:47:02;;;;;;;22.77;10.87;;;4.50;99.90;;;;;;4358723;28;658968;-61
2021/01/20 08:49:51;;;;;;;27.50;11.07;;;4.70;99.90;;;;;;4336090;28;658900;-62
2021/01/20 08:52:44;;;;;;;16.13;6.50;;;4.80;99.90;;;;;;4344438;28;658651;-62
2021/01/20 08:55:31;;;;;;;27.00;9.50;;;5.10;99.90;;;;;;4345465;28;658814;-61
2021/01/20 08:58:30;;;;;;;25.03;6.60;;;5.40;99.90;;;;;;4365479;28;657756;-62
2021/01/20 09:01:24;;;;;;;24.27;10.47;;;5.70;99.90;;;;;;4363901;28;658418;-62
2021/01/20 09:04:10;;;;;;;25.30;9.73;;;5.60;99.90;;;;;;4329359;28;659072;-62
2021/01/20 09:06:57;;;;;;;28.27;7.80;;;5.70;99.90;;;;;;4385935;28;658073;-61
2021/01/20 09:09:45;;;;;;;33.67;12.73;;;5.70;99.90;;;;;;4352105;28;658573;-63
2021/01/20 09:12:32;;;;;;;24.23;9.83;;;5.60;99.90;;;;;;4367940;28;659227;-61
2021/01/20 09:15:20;;;;;;;22.70;10.37;;;5.50;99.90;;;;;;4355361;28;657498;-62
2021/01/20 09:18:08;;;;;;;22.07;10.17;;;5.50;99.90;;;;;;4373198;28;659458;-61
2021/01/20 09:20:55;;;;;;;18.77;5.60;;;5.50;99.90;;;;;;4359785;28;658610;-62
2021/01/20 09:23:42;;;;;;;30.58;12.25;;;5.60;99.90;;;;;;4374717;28;659440;-62
2021/01/20 09:26:29;;;;;;;21.27;7.87;;;5.70;99.90;;;;;;4354695;28;658841;-62
2021/01/20 09:29:15;;;;;;;15.30;6.80;;;5.80;99.90;;;;;;4369363;28;658201;-61
2021/01/20 09:32:04;;;;;;;14.77;5.73;;;5.90;99.90;;;;;;4354329;28;657701;-61
2021/01/20 09:34:51;;;;;;;27.40;11.65;;;6.00;99.90;;;;;;4344537;28;658427;-61
2021/01/20 09:37:38;;;;;;;25.20;11.00;;;6.30;99.90;;;;;;4374010;28;658523;-61
2021/01/20 09:40:25;;;;;;;29.27;11.37;;;6.50;99.90;;;;;;4350314;28;660194;-61
2021/01/20 09:43:12;;;;;;;27.50;11.97;;;6.60;99.90;;;;;;4365626;28;659506;-62
2021/01/20 09:45:59;;;;;;;24.30;9.57;;;6.80;99.90;;;;;;4334497;28;658724;-62
2021/01/20 09:48:47;;;;;;;20.03;7.67;;;6.80;99.90;;;;;;4365719;28;658899;-61
2021/01/20 09:51:34;;;;;;;31.13;12.47;;;6.70;99.90;;;;;;4347144;28;658312;-61
2021/01/20 09:54:21;;;;;;;21.77;10.33;;;6.60;99.90;;;;;;4365108;28;660686;-62
2021/01/20 09:57:09;;;;;;;22.67;10.70;;;6.80;99.90;;;;;;4357811;28;658436;-62
2021/01/20 09:59:56;;;;;;;24.75;11.13;;;6.90;98.20;;;;;;4367010;28;658201;-62
2021/01/20 10:02:43;;;;;;;17.37;6.47;;;7.00;99.90;;;;;;4357935;28;659514;-61
2021/01/20 10:05:30;;;;;;;19.93;8.60;;;7.20;94.70;;;;;;4356642;28;657846;-61
2021/01/20 10:08:17;;;;;;;26.37;11.10;;;6.70;97.20;;;;;;4366883;28;657528;-61
2021/01/20 10:11:04;;;;;;;29.33;12.30;;;6.60;97.50;;;;;;4340943;28;658538;-61
2021/01/20 10:13:51;;;;;;;21.20;9.13;;;6.70;97.80;;;;;;4366148;28;659911;-61
2021/01/20 10:16:39;;;;;;;18.70;7.23;;;6.80;96.70;;;;;;4366479;28;657516;-62
2021/01/20 10:19:25;;;;;;;31.47;12.33;;;6.90;95.00;;;;;;4362642;28;658163;-61
2021/01/20 10:22:13;;;;;;;24.63;9.17;;;6.80;95.30;;;;;;4360179;28;659211;-61
2021/01/20 10:25:00;;;;;;;28.43;11.97;;;6.80;94.90;;;;;;4354009;28;659206;-60
2021/01/20 10:27:47;;;;;;;18.40;7.70;;;6.90;95.10;;;;;;4382767;28;659485;-61
2021/01/20 10:30:34;;;;;;;16.33;6.67;;;6.90;94.90;;;;;;4350103;28;657999;-61
2021/01/20 10:33:21;;;;;;;17.17;5.70;;;6.90;93.40;;;;;;4369897;28;657962;-61
2021/01/20 10:36:09;;;;;;;16.57;8.20;;;6.70;94.20;;;;;;4372239;28;657407;-62
2021/01/20 10:38:57;;;;;;;8.40;4.40;;;6.40;97.40;;;;;;4391992;28;657236;-61
2021/01/20 10:41:44;;;;;;;15.57;6.53;;;6.40;97.30;;;;;;4349904;28;656512;-62
2021/01/20 10:44:31;;;;;;;18.27;8.30;;;6.50;96.80;;;;;;4372979;28;658182;-61
2021/01/20 10:47:17;;;;;;;19.10;8.33;;;6.70;95.00;;;;;;4373642;28;657531;-60
2021/01/20 10:50:05;;;;;;;25.87;10.50;;;6.70;93.10;;;;;;4353844;28;658263;-61
2021/01/20 10:52:52;;;;;;;17.73;7.00;;;6.80;93.10;;;;;;4370907;28;658988;-61
2021/01/20 10:55:40;;;;;;;18.87;8.87;;;7.00;92.50;;;;;;4367589;28;657560;-61
2021/01/20 10:58:27;;;;;;;23.13;6.30;;;7.10;91.70;;;;;;4381095;28;657703;-60
2021/01/20 11:01:14;;;;;;;8.80;3.47;;;7.10;90.60;;;;;;4364907;28;658059;-60
2021/01/20 11:04:01;;;;;;;22.40;9.80;;;7.10;90.50;;;;;;4387449;28;657420;-61
2021/01/20 11:06:48;;;;;;;16.60;7.20;;;7.10;91.30;;;;;;4370194;28;658087;-60
2021/01/20 11:09:35;;;;;;;14.93;6.47;;;7.20;90.40;;;;;;4365705;28;657838;-61
2021/01/20 11:12:23;;;;;;;9.83;4.37;;;7.60;87.90;;;;;;4396761;28;658925;-61
2021/01/20 11:15:11;;;;;;;14.47;5.87;;;7.50;85.70;;;;;;4370027;28;656710;-61
2021/01/20 11:17:58;;;;;;;16.30;8.40;;;7.50;86.40;;;;;;4354336;28;658508;-60
2021/01/20 11:20:45;;;;;;;16.70;6.73;;;7.70;85.90;;;;;;4347050;28;658113;-62
2021/01/20 11:23:35;;;;;;;19.83;7.63;;;9.00;78.60;;;;;;4368753;28;657098;-61
2021/01/20 11:26:22;;;;;;;20.70;8.40;;;10.50;70.60;;;;;;4353115;28;658087;-61
2021/01/20 11:29:10;;;;;;;22.53;9.10;;;10.30;66.00;;;;;;4338355;28;659182;-61
2021/01/20 11:31:57;;;;;;;21.47;7.47;;;9.80;69.20;;;;;;4369571;28;658865;-61
2021/01/20 11:34:44;;;;;;;14.77;6.27;;;9.50;70.60;;;;;;4344527;28;658551;-60
2021/01/20 11:37:31;;;;;;;15.73;4.83;;;9.40;70.80;;;;;;4371643;28;659324;-60
2021/01/20 11:40:19;;;;;;;17.33;6.40;;;10.50;66.10;;;;;;4366536;28;657629;-62
2021/01/20 11:43:06;;;;;;;15.70;6.87;;;11.10;63.30;;;;;;4356177;28;660069;-61
2021/01/20 11:45:54;;;;;;;28.50;9.77;;;12.30;60.50;;;;;;4364656;28;658692;-61
2021/01/20 11:48:42;;;;;;;26.10;9.50;;;13.30;57.20;;;;;;4352884;28;660097;-62
2021/01/20 11:51:29;;;;;;;17.20;7.40;;;14.90;53.70;;;;;;4352993;28;658923;-62
2021/01/20 11:54:16;;;;;;;20.03;7.80;;;15.80;50.20;;;;;;4353766;28;659863;-61
2021/01/20 11:57:04;;;;;;;14.83;7.10;;;15.60;50.00;;;;;;4368789;28;658667;-62
2021/01/20 11:59:51;;;;;;;12.50;3.80;;;15.80;48.40;;;;;;4375235;28;659798;-61
2021/01/20 12:02:40;;;;;;;12.73;4.87;;;15.20;48.40;;;;;;4359372;28;659267;-62
2021/01/20 12:05:27;;;;;;;18.90;8.23;;;14.80;49.10;;;;;;4351854;28;659751;-60
2021/01/20 12:08:14;;;;;;;19.20;7.83;;;15.30;49.40;;;;;;4345803;28;658633;-62
2021/01/20 12:11:01;;;;;;;19.77;8.47;;;15.80;48.20;;;;;;4348797;28;659552;-61
2021/01/20 12:13:47;;;;;;;18.77;8.70;;;16.70;46.50;;;;;;4351117;28;659375;-61
2021/01/20 12:16:36;;;;;;;19.33;8.33;;;17.70;44.70;;;;;;4347912;28;658894;-61
2021/01/20 12:19:24;;;;;;;12.97;6.07;;;18.70;43.40;;;;;;4358564;28;658626;-61
2021/01/20 12:22:11;;;;;;;18.00;7.23;;;19.60;40.40;;;;;;4340459;28;659686;-61
2021/01/20 12:24:57;;;;;;;15.70;6.80;;;19.50;39.90;;;;;;4366653;28;659628;-61
2021/01/20 12:27:45;;;;;;;12.60;5.80;;;19.20;40.20;;;;;;4359400;28;659688;-61
2021/01/20 12:30:32;;;;;;;12.07;6.23;;;18.10;41.40;;;;;;4372000;28;660294;-61
2021/01/20 12:33:19;;;;;;;12.20;5.50;;;17.70;41.70;;;;;;4355038;28;659079;-62
2021/01/20 12:36:07;;;;;;;11.33;4.50;;;17.40;42.50;;;;;;4369680;28;658512;-61
2021/01/20 12:38:54;;;;;;;13.27;6.37;;;15.80;44.80;;;;;;4351656;28;658671;-61
2021/01/20 12:41:41;;;;;;;12.53;6.07;;;15.30;46.90;;;;;;4386069;28;660148;-61
2021/01/20 12:44:29;;;;;;;9.17;4.53;;;15.80;47.40;;;;;;4379852;28;659367;-60
2021/01/20 12:47:16;;;;;;;11.57;4.60;;;14.90;47.60;;;;;;4373178;28;659302;-60
2021/01/20 12:50:05;;;;;;;15.07;5.77;;;15.00;48.10;;;;;;4355276;28;658982;-61
2021/01/20 12:52:53;;;;;;;15.97;6.17;;;13.90;50.80;;;;;;4367375;28;659345;-60
2021/01/20 12:55:40;;;;;;;14.57;6.67;;;14.10;49.90;;;;;;4345761;28;658488;-60
2021/01/20 12:58:27;;;;;;;5.70;2.40;;;14.80;49.40;;;;;;4364193;28;660608;-60
2021/01/20 13:01:14;;;;;;;12.73;5.80;;;14.90;48.00;;;;;;4367243;28;657552;-61
2021/01/20 13:04:01;;;;;;;14.40;5.80;;;14.30;48.80;;;;;;4373199;28;659759;-61
2021/01/20 13:06:48;;;;;;;14.50;6.10;;;13.60;50.20;;;;;;4374236;28;660870;-62
2021/01/20 13:09:36;;;;;;;14.33;6.80;;;14.00;52.00;;;;;;4363843;28;659623;-60
2021/01/20 13:12:24;;;;;;;17.50;6.47;;;14.30;50.00;;;;;;4371816;28;659189;-60
2021/01/20 13:15:11;;;;;;;14.33;6.33;;;14.20;49.90;;;;;;4371540;28;660072;-60
2021/01/20 13:17:59;;;;;;;8.00;3.37;;;14.10;50.00;;;;;;4366736;28;658643;-61
2021/01/20 13:20:45;;;;;;;8.97;4.63;;;12.60;51.90;;;;;;4375125;28;658957;-60
2021/01/20 13:23:32;;;;;;;9.63;4.47;;;11.40;55.40;;;;;;4384191;28;657175;-60
2021/01/20 13:26:20;;;;;;;9.83;2.87;;;10.40;57.10;;;;;;4359520;28;657886;-59
2021/01/20 13:29:07;;;;;;;9.73;3.83;;;10.00;59.20;;;;;;4370239;28;657838;-60
2021/01/20 13:31:54;;;;;;;11.03;4.30;;;9.10;62.90;;;;;;4348697;28;657736;-60
2021/01/20 13:34:41;;;;;;;10.47;4.17;;;8.80;64.80;;;;;;4360331;28;659076;-59
2021/01/20 13:37:29;;;;;;;7.47;3.13;;;8.60;65.70;;;;;;4354203;28;657418;-60
2021/01/20 13:40:16;;;;;;;8.50;3.97;;;9.00;66.30;;;;;;4368472;28;657066;-59
2021/01/20 13:43:04;;;;;;;9.83;2.23;;;9.40;64.50;;;;;;4368593;28;656985;-59
2021/01/20 13:45:51;;;;;;;10.93;4.07;;;9.80;63.40;;;;;;4348943;28;657494;-60
2021/01/20 13:48:39;;;;;;;15.43;4.63;;;10.10;61.90;;;;;;4370534;28;658001;-60
2021/01/20 13:51:26;;;;;;;8.10;3.63;;;10.50;60.30;;;;;;4352400;28;659876;-60
2021/01/20 13:54:12;;;;;;;15.63;4.20;;;10.80;59.10;;;;;;4360261;28;658470;-59
2021/01/20 13:57:05;;;;;;;12.20;4.27;;;11.30;58.50;;;;;;4357558;28;660142;-60
2021/01/20 13:59:53;;;;;;;12.40;4.43;;;11.70;57.10;;;;;;4347924;28;659125;-60
2021/01/20 14:02:40;;;;;;;12.17;4.63;;;12.10;56.50;;;;;;4334111;28;659901;-60
2021/01/20 14:05:27;;;;;;;11.13;4.97;;;12.40;55.40;;;;;;4368484;28;659486;-60
2021/01/20 14:08:14;;;;;;;11.70;5.00;;;12.40;54.80;;;;;;4338741;28;659050;-60
2021/01/20 14:11:01;;;;;;;12.93;5.40;;;12.20;55.20;;;;;;4370216;28;659897;-59
2021/01/20 14:13:49;;;;;;;14.67;6.40;;;11.80;55.70;;;;;;4359515;28;658703;-61
2021/01/20 14:16:37;;;;;;;13.13;5.83;;;11.30;56.70;;;;;;4383102;28;658443;-60
2021/01/20 14:19:24;;;;;;;14.03;6.70;;;10.40;57.80;;;;;;4351595;28;658795;-60